Portada
METAR-TAF:

METAR-TAF

Aeroports :

Angulema, França

latitud: 45-43-46N, longitud: 00-13-08E, altitud: 132 m

Observació

L'informe es va fer fa 46 minuts, a les 11:30 UTC
Vent 8 kt del Sud/Sud-Est, variant entre Est/Sud-Est i Sud
Temperatura 16°C
Humitat 68%
Pressió 1016 hPa
Visibilitat 10 km o més
sense núvols per sota de 1500 mi sense presència de cumulonimbus.

METAR: LFBU 261130Z AUTO 16008KT 120V180 CAVOK 16/10 Q1016 NOSIG

Hora: 13:16 (12:16 UTC)

Pronòstic

L'informe es va fer fa 1 hora i 16 minuts, a les 11:00 UTC
Pronòstic vàlid del 26 a les 12 UTC al 27 a les 12 UTC
Vent 8 kt del Est/Sud-Est
Visibilitat 10 km o més
Cel ennuvolat a una alçada de 3500 ft

TAF: LFBU 261100Z 2612/2712 11008KT 9999 BKN035

Observacions i pronòstics meteorològics de més de 4000 aeroports (METAR i TAF).

Les estacions disponibles són els punts grocs i vermells al mapa.

Posi el ratolí al punt desitjat per veure el nom de l'estació.

Feu clic per veure les observacions i els pronòstics meteorològics.

Per canviar el mapa: feu clic els botons verds amb una creu de color negre per apropar; al botó verd amb un guió per allunyar la imatge; o en les fletxes verdes per a mapes adjacents.


METAR-TAF: